Angoon, Alaska
Current Conditions -  °F | °C
As of 1:56 AM on Wednesday 22 Oct 2014 (Local Time) from PAGN Reporting Station
Few Clouds Few Clouds  
Wind Chill: 50°   Ceiling: Unl
Heat Index: 50°   Visibility: 10mi
Dew Point: 38°   Wind: 7mph
Humidity: 63%   Direction: 70°ENE
Pressure: 29.11"   Gusts: 16mph
Location:  57.5°N, 134.59°W
Report Text: PAGN 220956Z AUTO 07006G14KT 10SM FEW110 10/03 A2911 RMK AO2 TSNO T01000033 SLP859 $
Loading
Personal Weather Stations






























Interactive Weather Map
Tropical Storm Tracking
New forecast layout! Learn more

10-Day Weather Forecast

Advertisements
Track Severe Weather on mobile